Time;durP1;ratioP1;P1;durP2;ratioP2;P2;SDS_P1;SDS_P2;PMS_P1;PMS_P2;Temp;Humidity;BMP_temperature;BMP_pressure;BME280_temperature;BME280_humidity;BME280_pressure;Samples;Min_cycle;Max_cycle;Signal;HPM_P1;HPM_P2
2023/06/01 00:02:05;;;;;;;6.38;2.95;;;;;;;;;;5131342;27;20430;-59
2023/06/01 00:04:32;;;;;;;7.63;2.88;;;;;;;;;;5117779;27;20434;-59
2023/06/01 00:07:01;;;;;;;5.72;3.08;;;;;;;;;;5133576;27;20116;-62
2023/06/01 00:09:28;;;;;;;3.38;2.30;;;;;;;;;;5131220;27;20510;-59
2023/06/01 00:11:56;;;;;;;4.68;2.42;;;;;;;;;;5134053;27;20418;-60
2023/06/01 00:14:23;;;;;;;5.35;2.70;;;;;;;;;;5133252;27;20514;-59
2023/06/01 00:16:51;;;;;;;4.15;2.53;;;;;;;;;;5134365;27;20058;-59
2023/06/01 00:19:20;;;;;;;5.40;3.08;;;;;;;;;;5131169;27;20043;-59
2023/06/01 00:21:47;;;;;;;3.83;2.85;;;;;;;;;;5132795;27;20062;-59
2023/06/01 00:24:16;;;;;;;6.43;3.28;;;;;;;;;;5133466;27;20047;-59
2023/06/01 00:26:43;;;;;;;5.18;2.67;;;;;;;;;;5133927;27;20058;-59
2023/06/01 00:29:12;;;;;;;5.60;2.88;;;;;;;;;;5132832;27;20046;-60
2023/06/01 00:31:39;;;;;;;6.00;3.20;;;;;;;;;;5133609;27;20502;-59
2023/06/01 00:34:07;;;;;;;9.68;3.45;;;;;;;;;;5131151;27;20055;-59
2023/06/01 00:36:35;;;;;;;5.55;3.00;;;;;;;;;;5134003;27;20172;-59
2023/06/01 00:39:03;;;;;;;5.03;3.20;;;;;;;;;;5134032;27;20051;-59
2023/06/01 00:41:30;;;;;;;5.78;2.95;;;;;;;;;;5133700;27;20411;-59
2023/06/01 00:43:57;;;;;;;6.72;2.80;;;;;;;;;;5131707;27;20055;-60
2023/06/01 00:46:26;;;;;;;5.47;2.63;;;;;;;;;;5133648;27;20062;-60
2023/06/01 00:48:53;;;;;;;3.88;3.17;;;;;;;;;;5131450;27;20403;-60
2023/06/01 00:51:20;;;;;;;4.97;2.78;;;;;;;;;;5133047;27;20062;-60
2023/06/01 00:53:47;;;;;;;6.38;3.20;;;;;;;;;;5133555;27;20059;-60
2023/06/01 00:56:14;;;;;;;4.72;3.22;;;;;;;;;;5133444;27;20403;-60
2023/06/01 00:58:41;;;;;;;3.17;2.60;;;;;;;;;;5133797;27;20055;-60
2023/06/01 01:01:18;;;;;;;6.22;3.00;;;;;;;;;;5133401;27;20391;-60
2023/06/01 01:03:49;;;;;;;5.03;2.85;;;;;;;;;;5127795;27;20051;-60
2023/06/01 01:06:22;;;;;;;5.15;2.83;;;;;;;;;;5132162;27;20506;-60
2023/06/01 01:08:55;;;;;;;6.53;3.85;;;;;;;;;;5132497;28;20530;-60
2023/06/01 01:11:24;;;;;;;5.50;3.08;;;;;;;;;;5125636;28;20059;-60
2023/06/01 01:13:55;;;;;;;5.40;3.28;;;;;;;;;;5121186;27;20051;-60
2023/06/01 01:16:27;;;;;;;5.47;3.05;;;;;;;;;;5133494;28;20051;-60
2023/06/01 01:18:59;;;;;;;4.68;3.28;;;;;;;;;;5130550;27;20058;-59
2023/06/01 01:21:30;;;;;;;5.63;3.13;;;;;;;;;;5128666;28;20047;-59
2023/06/01 01:24:21;;;;;;;5.32;2.80;;;;;;;;;;5133607;28;20051;-60
2023/06/01 01:27:00;;;;;;;5.47;3.08;;;;;;;;;;5113330;28;20069;-60
2023/06/01 01:29:30;;;;;;;4.18;2.97;;;;;;;;;;5130040;27;20058;-60
2023/06/01 01:31:57;;;;;;;8.93;3.72;;;;;;;;;;5134743;27;20058;-60
2023/06/01 01:34:27;;;;;;;5.70;3.38;;;;;;;;;;5133561;27;20054;-59
2023/06/01 01:36:53;;;;;;;;;;;;;;;;;;5137856;27;20064;-59
2023/06/01 01:39:20;;;;;;;7.43;3.20;;;;;;;;;;5136591;27;19919;-60
2023/06/01 01:41:47;;;;;;;7.00;3.35;;;;;;;;;;5134605;27;20055;-60
2023/06/01 01:44:14;;;;;;;5.35;3.35;;;;;;;;;;5135948;27;20055;-59
2023/06/01 01:46:45;;;;;;;6.30;3.28;;;;;;;;;;5137263;27;20055;-60
2023/06/01 01:49:17;;;;;;;8.02;3.47;;;;;;;;;;5134771;27;20407;-60
2023/06/01 01:51:49;;;;;;;7.03;3.35;;;;;;;;;;5134580;27;20073;-59
2023/06/01 01:54:17;;;;;;;5.10;3.30;;;;;;;;;;5136914;27;20517;-59
2023/06/01 01:56:45;;;;;;;6.28;3.63;;;;;;;;;;5137203;27;20043;-60
2023/06/01 01:59:12;;;;;;;5.78;3.45;;;;;;;;;;5135423;27;20051;-59
2023/06/01 02:01:41;;;;;;;4.50;3.55;;;;;;;;;;5136990;27;20494;-59
2023/06/01 02:04:10;;;;;;;4.50;3.40;;;;;;;;;;5135706;27;20078;-59
2023/06/01 02:06:37;;;;;;;6.70;3.83;;;;;;;;;;5133209;27;20492;-59
2023/06/01 02:09:06;;;;;;;6.65;3.60;;;;;;;;;;5136919;27;20406;-59
2023/06/01 02:11:33;;;;;;;7.53;3.78;;;;;;;;;;5136232;27;20047;-59
2023/06/01 02:14:00;;;;;;;6.35;3.75;;;;;;;;;;5135693;27;20061;-60
2023/06/01 02:16:27;;;;;;;6.18;3.97;;;;;;;;;;5136879;27;20061;-59
2023/06/01 02:18:57;;;;;;;8.30;4.03;;;;;;;;;;5134097;27;20047;-59
2023/06/01 02:21:25;;;;;;;6.10;4.45;;;;;;;;;;5134968;27;20122;-60
2023/06/01 02:23:52;;;;;;;6.70;4.43;;;;;;;;;;5136619;27;20051;-59
2023/06/01 02:26:19;;;;;;;9.45;4.80;;;;;;;;;;5136480;27;20051;-59
2023/06/01 02:28:46;;;;;;;6.55;4.38;;;;;;;;;;5135397;27;20047;-60
2023/06/01 02:31:13;;;;;;;8.00;5.68;;;;;;;;;;5135688;27;20062;-59
2023/06/01 02:33:40;;;;;;;10.35;6.05;;;;;;;;;;5134316;27;20054;-59
2023/06/01 02:36:07;;;;;;;10.27;6.25;;;;;;;;;;5134819;27;20053;-59
2023/06/01 02:38:36;;;;;;;14.32;6.80;;;;;;;;;;5136345;27;20051;-60
2023/06/01 02:41:03;;;;;;;11.68;7.45;;;;;;;;;;5133623;27;20507;-60
2023/06/01 02:43:29;;;;;;;14.23;7.60;;;;;;;;;;5128551;27;20051;-60
2023/06/01 02:45:56;;;;;;;14.57;7.53;;;;;;;;;;5135920;27;20054;-59
2023/06/01 02:48:24;;;;;;;14.32;8.18;;;;;;;;;;5134750;27;20039;-60
2023/06/01 02:50:50;;;;;;;13.93;8.32;;;;;;;;;;5134111;27;20047;-60
2023/06/01 02:53:17;;;;;;;14.18;8.95;;;;;;;;;;5135700;27;20529;-59
2023/06/01 02:55:45;;;;;;;16.35;10.50;;;;;;;;;;5134621;27;20055;-58
2023/06/01 02:58:16;;;;;;;14.38;11.27;;;;;;;;;;5135497;27;20423;-60
2023/06/01 03:00:43;;;;;;;18.45;12.25;;;;;;;;;;5135709;27;20395;-59
2023/06/01 03:03:11;;;;;;;16.92;11.10;;;;;;;;;;5134019;27;20480;-60
2023/06/01 03:05:38;;;;;;;20.30;12.57;;;;;;;;;;5130297;27;20059;-59
2023/06/01 03:08:06;;;;;;;18.95;13.48;;;;;;;;;;5135643;27;20066;-59
2023/06/01 03:10:33;;;;;;;19.15;12.90;;;;;;;;;;5114950;28;20051;-59
2023/06/01 03:13:01;;;;;;;20.10;14.20;;;;;;;;;;5115084;28;20058;-60
2023/06/01 03:15:28;;;;;;;21.10;13.65;;;;;;;;;;5130504;27;20055;-60
2023/06/01 03:17:55;;;;;;;22.50;14.00;;;;;;;;;;5134552;27;20043;-60
2023/06/01 03:20:24;;;;;;;21.02;13.13;;;;;;;;;;5134242;27;20058;-60
2023/06/01 03:22:51;;;;;;;21.38;14.65;;;;;;;;;;5135234;27;20058;-60
2023/06/01 03:25:21;;;;;;;20.65;14.02;;;;;;;;;;5134386;27;20051;-60
2023/06/01 03:27:48;;;;;;;19.65;14.07;;;;;;;;;;5135095;27;20051;-61
2023/06/01 03:30:17;;;;;;;19.35;13.00;;;;;;;;;;5135315;27;20047;-60
2023/06/01 03:32:44;;;;;;;22.50;14.33;;;;;;;;;;5133908;27;20043;-61
2023/06/01 03:35:12;;;;;;;22.15;14.75;;;;;;;;;;5131821;27;20407;-60
2023/06/01 03:37:40;;;;;;;23.73;15.85;;;;;;;;;;5135466;27;20046;-60
2023/06/01 03:40:10;;;;;;;24.40;15.38;;;;;;;;;;5133366;27;20055;-60
2023/06/01 03:42:36;;;;;;;;;;;;;;;;;;5135200;27;20059;-60
2023/06/01 03:45:04;;;;;;;25.88;15.57;;;;;;;;;;5135164;27;19919;-60
2023/06/01 03:47:32;;;;;;;24.52;15.25;;;;;;;;;;5133935;27;20070;-60
2023/06/01 03:49:59;;;;;;;27.25;16.42;;;;;;;;;;5132896;27;20058;-60
2023/06/01 03:52:26;;;;;;;27.48;15.88;;;;;;;;;;5135079;27;20054;-60
2023/06/01 03:54:53;;;;;;;25.48;16.35;;;;;;;;;;5133791;27;20411;-59
2023/06/01 03:57:20;;;;;;;25.40;16.45;;;;;;;;;;5133420;27;20055;-60
2023/06/01 03:59:47;;;;;;;26.38;16.17;;;;;;;;;;5133717;27;20059;-58
2023/06/01 04:02:14;;;;;;;23.83;14.85;;;;;;;;;;5132728;27;20058;-57
2023/06/01 04:04:45;;;;;;;24.17;16.08;;;;;;;;;;5133697;27;20058;-57
2023/06/01 04:07:18;;;;;;;30.58;17.17;;;;;;;;;;5133432;27;20051;-57
2023/06/01 04:09:45;;;;;;;26.48;17.13;;;;;;;;;;5134100;27;20047;-57
2023/06/01 04:12:13;;;;;;;25.73;16.52;;;;;;;;;;5133686;27;20043;-57
2023/06/01 04:14:40;;;;;;;27.25;17.98;;;;;;;;;;5134483;27;20055;-57
2023/06/01 04:17:09;;;;;;;26.75;17.05;;;;;;;;;;5130522;27;20062;-57
2023/06/01 04:19:36;;;;;;;25.77;17.88;;;;;;;;;;5132884;27;20395;-57
2023/06/01 04:22:05;;;;;;;22.08;15.57;;;;;;;;;;5131516;27;20055;-57
2023/06/01 04:24:32;;;;;;;22.77;16.57;;;;;;;;;;5128526;27;20050;-58
2023/06/01 04:26:59;;;;;;;24.55;17.23;;;;;;;;;;5134186;27;20480;-57
2023/06/01 04:29:28;;;;;;;23.65;16.95;;;;;;;;;;5132018;27;20047;-57
2023/06/01 04:31:55;;;;;;;26.20;17.85;;;;;;;;;;5126863;27;20062;-57
2023/06/01 04:34:23;;;;;;;25.00;17.67;;;;;;;;;;5129265;27;20051;-58
2023/06/01 04:36:51;;;;;;;25.60;18.50;;;;;;;;;;5133006;27;20057;-58
2023/06/01 04:39:19;;;;;;;29.25;18.00;;;;;;;;;;5133496;27;20062;-58
2023/06/01 04:41:46;;;;;;;27.63;18.50;;;;;;;;;;5133913;27;20497;-57
2023/06/01 04:44:13;;;;;;;28.30;19.23;;;;;;;;;;5133931;27;20051;-57
2023/06/01 04:46:40;;;;;;;23.42;18.00;;;;;;;;;;5133948;27;20047;-58
2023/06/01 04:49:07;;;;;;;27.10;17.90;;;;;;;;;;5132142;27;20423;-57
2023/06/01 04:51:36;;;;;;;29.83;18.52;;;;;;;;;;5132436;27;20047;-57
2023/06/01 04:54:04;;;;;;;29.80;19.30;;;;;;;;;;5130562;27;20059;-58
2023/06/01 04:56:32;;;;;;;32.63;20.88;;;;;;;;;;5114507;27;20420;-57
2023/06/01 04:59:00;;;;;;;33.20;19.95;;;;;;;;;;5113585;27;20051;-57
2023/06/01 05:01:29;;;;;;;25.88;18.17;;;;;;;;;;5130545;27;20055;-57
2023/06/01 05:03:56;;;;;;;25.02;18.80;;;;;;;;;;5132539;27;20484;-58
2023/06/01 05:06:24;;;;;;;24.92;17.90;;;;;;;;;;5132134;27;20054;-58
2023/06/01 05:08:51;;;;;;;27.45;19.80;;;;;;;;;;5132440;28;20050;-58
2023/06/01 05:11:18;;;;;;;24.55;19.15;;;;;;;;;;5130019;28;20066;-57
2023/06/01 05:13:46;;;;;;;27.63;19.63;;;;;;;;;;5133410;28;20094;-57
2023/06/01 05:16:13;;;;;;;26.23;18.58;;;;;;;;;;5128469;27;20055;-58
2023/06/01 05:18:40;;;;;;;26.42;19.23;;;;;;;;;;5132061;27;20499;-57
2023/06/01 05:21:07;;;;;;;29.88;20.42;;;;;;;;;;5132916;28;20435;-57
2023/06/01 05:23:34;;;;;;;30.75;23.10;;;;;;;;;;5133000;28;20080;-58
2023/06/01 05:26:02;;;;;;;24.65;19.17;;;;;;;;;;5132930;28;20482;-58
2023/06/01 05:28:30;;;;;;;24.95;18.42;;;;;;;;;;5132926;28;20399;-58
2023/06/01 05:30:58;;;;;;;24.45;18.48;;;;;;;;;;5140336;27;20047;-58
2023/06/01 05:33:25;;;;;;;25.75;18.67;;;;;;;;;;5131256;27;20070;-58
2023/06/01 05:35:52;;;;;;;25.17;18.67;;;;;;;;;;5129352;28;20055;-58
2023/06/01 05:38:20;;;;;;;28.40;19.67;;;;;;;;;;5126327;27;20059;-57
2023/06/01 05:40:47;;;;;;;24.38;18.98;;;;;;;;;;5129094;27;20055;-58
2023/06/01 05:43:15;;;;;;;23.50;18.00;;;;;;;;;;5128043;27;20051;-58
2023/06/01 05:45:41;;;;;;;24.10;18.17;;;;;;;;;;5119020;27;20055;-58
2023/06/01 05:48:13;;;;;;;27.63;19.77;;;;;;;;;;5130324;28;20062;-58
2023/06/01 05:50:40;;;;;;;23.67;18.02;;;;;;;;;;5125465;27;20132;-58
2023/06/01 05:53:07;;;;;;;24.40;18.52;;;;;;;;;;5128916;27;20050;-57
2023/06/01 05:55:33;;;;;;;22.15;17.50;;;;;;;;;;5128886;27;20518;-59
2023/06/01 05:58:00;;;;;;;23.38;16.88;;;;;;;;;;5128905;27;20059;-59
2023/06/01 06:00:27;;;;;;;21.90;15.70;;;;;;;;;;5127482;27;20039;-58
2023/06/01 06:02:54;;;;;;;22.15;16.63;;;;;;;;;;5130016;27;20418;-57
2023/06/01 06:05:22;;;;;;;18.52;15.75;;;;;;;;;;5127503;27;20483;-58
2023/06/01 06:07:49;;;;;;;18.17;15.05;;;;;;;;;;5129350;28;20078;-58
2023/06/01 06:10:16;;;;;;;20.40;15.02;;;;;;;;;;5127089;28;20040;-60
2023/06/01 06:12:43;;;;;;;19.40;15.82;;;;;;;;;;5125524;27;20059;-59
2023/06/01 06:15:10;;;;;;;20.55;15.57;;;;;;;;;;5128386;27;20434;-60
2023/06/01 06:17:37;;;;;;;21.20;16.48;;;;;;;;;;5129198;27;20047;-60
2023/06/01 06:20:07;;;;;;;23.42;16.80;;;;;;;;;;5130288;27;20046;-60
2023/06/01 06:22:35;;;;;;;19.17;16.05;;;;;;;;;;5132468;27;20055;-60
2023/06/01 06:25:02;;;;;;;22.75;16.60;;;;;;;;;;5133555;27;20049;-59
2023/06/01 06:27:29;;;;;;;18.42;16.45;;;;;;;;;;5131425;27;20522;-58
2023/06/01 06:30:02;;;;;;;20.98;16.73;;;;;;;;;;5133692;27;20043;-60
2023/06/01 06:32:38;;;;;;;21.85;16.10;;;;;;;;;;5127853;27;20058;-60
2023/06/01 06:35:05;;;;;;;22.98;17.27;;;;;;;;;;5133783;27;20050;-59
2023/06/01 06:37:32;;;;;;;18.70;16.55;;;;;;;;;;5114738;27;20062;-58
2023/06/01 06:40:00;;;;;;;18.73;15.43;;;;;;;;;;5132430;27;20054;-58
2023/06/01 06:42:27;;;;;;;19.65;13.85;;;;;;;;;;5134816;27;20047;-60
2023/06/01 06:44:56;;;;;;;20.02;15.30;;;;;;;;;;5132291;27;20047;-60
2023/06/01 06:47:22;;;;;;;18.13;14.55;;;;;;;;;;5133326;27;20054;-60
2023/06/01 06:49:50;;;;;;;19.50;13.85;;;;;;;;;;5130286;27;20051;-59
2023/06/01 06:52:16;;;;;;;17.20;13.90;;;;;;;;;;5133314;27;20691;-60
2023/06/01 06:54:43;;;;;;;20.27;15.38;;;;;;;;;;5132948;27;20066;-59
2023/06/01 06:57:12;;;;;;;20.88;15.38;;;;;;;;;;5127636;27;20488;-58
2023/06/01 06:59:39;;;;;;;19.27;14.43;;;;;;;;;;5113457;27;20082;-58
2023/06/01 07:02:06;;;;;;;15.57;13.73;;;;;;;;;;5123297;27;20058;-58
2023/06/01 07:04:33;;;;;;;16.92;13.95;;;;;;;;;;5126376;27;20058;-58
2023/06/01 07:07:03;;;;;;;17.23;14.00;;;;;;;;;;5121398;27;20059;-58
2023/06/01 07:09:30;;;;;;;16.20;13.07;;;;;;;;;;5125587;27;20467;-58
2023/06/01 07:11:57;;;;;;;19.13;13.57;;;;;;;;;;5127784;27;20066;-58
2023/06/01 07:14:25;;;;;;;17.67;13.90;;;;;;;;;;5126961;27;20051;-58
2023/06/01 07:16:52;;;;;;;17.65;14.25;;;;;;;;;;5126622;27;20412;-57
2023/06/01 07:19:19;;;;;;;16.80;13.27;;;;;;;;;;5124628;27;20051;-57
2023/06/01 07:21:46;;;;;;;17.17;14.73;;;;;;;;;;5127923;27;20058;-57
2023/06/01 07:24:13;;;;;;;18.67;16.65;;;;;;;;;;5127413;27;20050;-57
2023/06/01 07:26:40;;;;;;;19.33;15.95;;;;;;;;;;5126764;27;20055;-57
2023/06/01 07:29:06;;;;;;;19.50;15.15;;;;;;;;;;5122478;27;20520;-57
2023/06/01 07:31:35;;;;;;;21.25;15.88;;;;;;;;;;5124040;27;20055;-57
2023/06/01 07:34:02;;;;;;;19.98;16.77;;;;;;;;;;5124814;27;20055;-57
2023/06/01 07:36:33;;;;;;;22.75;16.20;;;;;;;;;;5124320;27;20491;-58
2023/06/01 07:39:00;;;;;;;17.17;13.90;;;;;;;;;;5124966;27;20051;-58
2023/06/01 07:41:27;;;;;;;17.42;14.43;;;;;;;;;;5125748;27;20490;-58
2023/06/01 07:43:54;;;;;;;16.88;13.48;;;;;;;;;;5125904;27;20055;-58
2023/06/01 07:46:21;;;;;;;15.77;13.70;;;;;;;;;;5124285;27;20043;-58
2023/06/01 07:48:50;;;;;;;15.25;13.65;;;;;;;;;;5122796;27;20073;-58
2023/06/01 07:51:17;;;;;;;16.98;14.52;;;;;;;;;;5122120;27;20043;-58
2023/06/01 07:53:44;;;;;;;18.63;16.30;;;;;;;;;;5124091;27;20058;-58
2023/06/01 07:56:11;;;;;;;18.00;14.65;;;;;;;;;;5126334;27;20058;-58
2023/06/01 07:58:39;;;;;;;18.38;15.30;;;;;;;;;;5127286;27;20067;-58
2023/06/01 08:01:06;;;;;;;17.00;13.60;;;;;;;;;;5122875;27;20047;-58
2023/06/01 08:03:33;;;;;;;15.10;13.52;;;;;;;;;;5125555;27;20053;-57
2023/06/01 08:06:02;;;;;;;18.13;14.30;;;;;;;;;;5121941;27;20051;-57
2023/06/01 08:08:29;;;;;;;15.63;13.13;;;;;;;;;;5123972;27;20055;-57
2023/06/01 08:10:56;;;;;;;16.17;13.63;;;;;;;;;;5125174;27;20829;-58
2023/06/01 08:13:25;;;;;;;16.08;13.95;;;;;;;;;;5123643;27;20043;-57
2023/06/01 08:15:52;;;;;;;15.27;12.18;;;;;;;;;;5124323;27;20055;-57
2023/06/01 08:18:19;;;;;;;16.35;11.40;;;;;;;;;;5126379;27;20050;-57
2023/06/01 08:20:46;;;;;;;16.58;11.63;;;;;;;;;;5124347;27;20404;-58
2023/06/01 08:23:16;;;;;;;15.70;12.63;;;;;;;;;;5126829;27;20062;-59
2023/06/01 08:25:43;;;;;;;13.20;11.77;;;;;;;;;;5127518;27;20055;-60
2023/06/01 08:28:16;;;;;;;14.55;12.00;;;;;;;;;;5126593;27;20061;-58
2023/06/01 08:30:43;;;;;;;13.45;11.68;;;;;;;;;;5120521;27;20044;-58
2023/06/01 08:33:09;;;;;;;14.05;11.70;;;;;;;;;;5126664;27;20050;-60
2023/06/01 08:35:36;;;;;;;14.80;12.00;;;;;;;;;;5126479;27;20051;-59
2023/06/01 08:38:04;;;;;;;15.80;13.20;;;;;;;;;;5128027;27;20419;-59
2023/06/01 08:40:32;;;;;;;13.65;12.25;;;;;;;;;;5128176;27;20055;-60
2023/06/01 08:43:00;;;;;;;13.53;11.70;;;;;;;;;;5124785;27;21714;-59
2023/06/01 08:45:27;;;;;;;15.23;12.90;;;;;;;;;;5120610;27;20884;-60
2023/06/01 08:47:54;;;;;;;14.50;12.27;;;;;;;;;;5120879;27;20054;-60
2023/06/01 08:50:21;;;;;;;13.35;11.45;;;;;;;;;;5121066;27;20043;-59
2023/06/01 08:52:50;;;;;;;14.20;12.70;;;;;;;;;;5124868;27;20055;-59
2023/06/01 08:55:17;;;;;;;18.65;15.82;;;;;;;;;;5127715;27;20055;-59
2023/06/01 08:57:45;;;;;;;15.32;13.73;;;;;;;;;;5127271;27;20055;-59
2023/06/01 09:00:13;;;;;;;15.77;14.15;;;;;;;;;;5128114;27;20043;-59
2023/06/01 09:02:39;;;;;;;14.70;12.98;;;;;;;;;;5127224;27;20066;-58
2023/06/01 09:05:07;;;;;;;16.00;13.38;;;;;;;;;;5125253;27;20047;-59
2023/06/01 09:07:34;;;;;;;14.18;12.65;;;;;;;;;;5128423;28;20047;-58
2023/06/01 09:10:01;;;;;;;13.93;12.20;;;;;;;;;;5118455;28;20455;-59
2023/06/01 09:12:29;;;;;;;17.13;15.30;;;;;;;;;;5128052;28;20066;-59
2023/06/01 09:15:17;;;;;;;19.90;18.00;;;;;;;;;;5127372;28;20074;-58
2023/06/01 09:17:46;;;;;;;18.55;16.65;;;;;;;;;;5116886;27;20561;-57
2023/06/01 09:20:14;;;;;;;17.90;16.02;;;;;;;;;;5123687;27;20043;-58
2023/06/01 09:22:41;;;;;;;16.90;15.30;;;;;;;;;;5127988;28;20066;-58
2023/06/01 09:25:08;;;;;;;16.73;15.07;;;;;;;;;;5124844;27;20062;-58
2023/06/01 09:27:43;;;;;;;14.32;12.95;;;;;;;;;;5126329;28;20117;-58
2023/06/01 09:30:11;;;;;;;15.20;13.73;;;;;;;;;;5121713;27;20069;-58
2023/06/01 09:32:37;;;;;;;14.52;13.15;;;;;;;;;;5128428;28;20059;-58
2023/06/01 09:35:07;;;;;;;16.15;14.65;;;;;;;;;;5125773;27;20047;-58
2023/06/01 09:37:34;;;;;;;13.15;11.93;;;;;;;;;;5128364;28;20051;-58
2023/06/01 09:40:05;;;;;;;13.10;11.88;;;;;;;;;;5123195;27;20055;-59
2023/06/01 09:42:33;;;;;;;12.73;11.48;;;;;;;;;;5124481;28;20491;-60
2023/06/01 09:45:15;;;;;;;12.73;11.52;;;;;;;;;;5121032;27;20419;-60
2023/06/01 09:47:42;;;;;;;13.23;12.02;;;;;;;;;;5122326;28;20420;-60
2023/06/01 09:50:11;;;;;;;13.70;12.30;;;;;;;;;;5120496;27;20051;-60
2023/06/01 09:52:37;;;;;;;14.45;13.15;;;;;;;;;;5117418;27;20055;-61
2023/06/01 09:55:08;;;;;;;12.63;11.57;;;;;;;;;;5124577;27;20086;-61
2023/06/01 09:57:35;;;;;;;13.70;12.40;;;;;;;;;;5128108;27;20058;-61
2023/06/01 10:00:03;;;;;;;13.35;12.13;;;;;;;;;;5119864;27;20076;-60
2023/06/01 10:02:31;;;;;;;13.40;12.18;;;;;;;;;;5124324;27;20051;-60
2023/06/01 10:04:58;;;;;;;;;;;;;;;;;;5128388;27;20066;-60
2023/06/01 10:07:31;;;;;;;13.18;11.98;;;;;;;;;;5131975;27;19926;-61
2023/06/01 10:09:58;;;;;;;12.68;11.48;;;;;;;;;;5118313;27;20043;-60
2023/06/01 10:12:25;;;;;;;13.18;11.98;;;;;;;;;;5129589;27;20047;-60
2023/06/01 10:14:52;;;;;;;13.27;11.98;;;;;;;;;;5130176;27;20062;-59
2023/06/01 10:17:19;;;;;;;12.07;11.07;;;;;;;;;;5128645;27;20062;-61
2023/06/01 10:19:46;;;;;;;12.07;10.93;;;;;;;;;;5129476;27;20845;-61
2023/06/01 10:22:13;;;;;;;12.65;11.45;;;;;;;;;;5130788;27;20051;-60
2023/06/01 10:24:41;;;;;;;13.25;12.05;;;;;;;;;;5131078;27;20055;-59
2023/06/01 10:27:14;;;;;;;12.68;11.55;;;;;;;;;;5128038;27;20056;-59
2023/06/01 10:29:41;;;;;;;14.80;11.70;;;;;;;;;;5116214;28;20063;-59
2023/06/01 10:32:40;;;;;;;13.00;11.77;;;;;;;;;;5121313;27;20043;-59
2023/06/01 10:35:07;;;;;;;12.68;11.48;;;;;;;;;;5120928;27;20058;-59
2023/06/01 10:37:34;;;;;;;13.38;12.27;;;;;;;;;;5122452;27;20050;-60
2023/06/01 10:40:19;;;;;;;13.37;12.33;;;;;;;;;;5133099;27;20059;-61
2023/06/01 10:42:46;;;;;;;13.18;12.07;;;;;;;;;;5135026;27;20055;-59
2023/06/01 10:45:31;;;;;;;13.98;12.77;;;;;;;;;;5132258;27;20054;-59
2023/06/01 10:47:58;;;;;;;13.98;12.70;;;;;;;;;;5130874;27;20054;-59
2023/06/01 10:50:25;;;;;;;15.25;13.85;;;;;;;;;;5135544;27;20047;-57
2023/06/01 10:52:52;;;;;;;14.97;13.80;;;;;;;;;;5135868;27;20380;-58
2023/06/01 10:55:22;;;;;;;15.02;13.63;;;;;;;;;;5135195;27;20481;-58
2023/06/01 10:57:49;;;;;;;12.82;11.63;;;;;;;;;;5134138;27;20050;-58
2023/06/01 11:00:17;;;;;;;12.00;10.93;;;;;;;;;;5131804;27;20415;-58
2023/06/01 11:02:48;;;;;;;11.07;9.77;;;;;;;;;;5132133;27;20480;-59
2023/06/01 11:05:34;;;;;;;9.93;9.02;;;;;;;;;;5131510;27;20043;-58
2023/06/01 11:08:01;;;;;;;9.50;8.60;;;;;;;;;;5129084;27;20051;-58
2023/06/01 11:10:46;;;;;;;10.98;9.60;;;;;;;;;;5132070;27;20058;-59
2023/06/01 11:13:17;;;;;;;11.23;10.23;;;;;;;;;;5133065;27;20403;-59
2023/06/01 11:16:00;;;;;;;10.25;9.25;;;;;;;;;;5132866;27;20494;-59
2023/06/01 11:18:49;;;;;;;10.65;9.57;;;;;;;;;;5115874;27;20051;-60
2023/06/01 11:21:17;;;;;;;11.25;9.88;;;;;;;;;;5122955;27;20047;-60
2023/06/01 11:23:44;;;;;;;;;;;;;;;;;;5127004;27;20047;-60
2023/06/01 11:26:13;;;;;;;12.30;11.10;;;;;;;;;;5124957;27;19927;-60
2023/06/01 11:28:41;;;;;;;11.57;10.48;;;;;;;;;;5125429;27;20051;-61
2023/06/01 11:31:09;;;;;;;10.73;9.70;;;;;;;;;;5128397;27;20047;-60
2023/06/01 11:33:38;;;;;;;11.73;10.50;;;;;;;;;;5125050;27;20059;-61
2023/06/01 11:36:06;;;;;;;11.13;9.95;;;;;;;;;;5129097;27;20058;-59
2023/06/01 11:38:33;;;;;;;11.88;10.68;;;;;;;;;;5126038;27;20051;-59
2023/06/01 11:41:01;;;;;;;11.00;10.00;;;;;;;;;;5124373;27;20395;-60
2023/06/01 11:43:28;;;;;;;9.32;8.40;;;;;;;;;;5125932;27;20062;-60
2023/06/01 11:46:02;;;;;;;11.13;10.02;;;;;;;;;;5126735;27;20508;-59
2023/06/01 11:48:29;;;;;;;10.90;9.90;;;;;;;;;;5125101;27;20486;-60
2023/06/01 11:50:55;;;;;;;19.17;17.80;;;;;;;;;;5125867;27;20058;-60
2023/06/01 11:53:22;;;;;;;11.05;9.98;;;;;;;;;;5125540;27;20047;-60
2023/06/01 11:55:50;;;;;;;11.80;10.60;;;;;;;;;;5124854;27;20063;-60
2023/06/01 11:58:22;;;;;;;11.23;10.20;;;;;;;;;;5126605;27;20479;-61
2023/06/01 12:00:49;;;;;;;11.00;10.00;;;;;;;;;;5124798;27;20047;-60
2023/06/01 12:03:17;;;;;;;11.57;10.38;;;;;;;;;;5122024;27;20506;-61
2023/06/01 12:05:45;;;;;;;11.43;10.23;;;;;;;;;;5126564;27;20403;-61
2023/06/01 12:08:15;;;;;;;11.88;10.55;;;;;;;;;;5124836;27;20051;-61
2023/06/01 12:10:43;;;;;;;11.70;10.50;;;;;;;;;;5128137;27;20051;-60
2023/06/01 12:13:10;;;;;;;10.75;9.75;;;;;;;;;;5127007;27;20047;-61
2023/06/01 12:15:38;;;;;;;10.63;9.55;;;;;;;;;;5125832;27;20059;-60
2023/06/01 12:18:06;;;;;;;12.57;10.70;;;;;;;;;;5121854;27;20054;-60
2023/06/01 12:20:35;;;;;;;10.05;9.15;;;;;;;;;;5122313;27;20066;-61
2023/06/01 12:23:03;;;;;;;9.32;8.40;;;;;;;;;;5126245;27;20419;-60
2023/06/01 12:25:31;;;;;;;8.60;7.70;;;;;;;;;;5126421;27;20043;-60
2023/06/01 12:28:01;;;;;;;9.38;8.48;;;;;;;;;;5127465;27;20514;-60
2023/06/01 12:30:28;;;;;;;8.98;8.18;;;;;;;;;;5126531;27;20051;-59
2023/06/01 12:32:55;;;;;;;9.55;8.35;;;;;;;;;;5125686;27;20050;-60
2023/06/01 12:35:23;;;;;;;8.70;7.78;;;;;;;;;;5124439;27;20051;-59
2023/06/01 12:37:50;;;;;;;;;;;;;;;;;;5125711;27;20055;-60
2023/06/01 12:40:23;;;;;;;10.02;7.53;;;;;;;;;;5124301;27;20322;-60
2023/06/01 12:42:50;;;;;;;8.15;7.32;;;;;;;;;;5124714;27;20058;-59
2023/06/01 12:45:17;;;;;;;9.63;8.20;;;;;;;;;;5123738;27;20415;-61
2023/06/01 12:47:44;;;;;;;8.80;7.25;;;;;;;;;;5124775;27;20043;-59
2023/06/01 12:50:12;;;;;;;10.88;8.15;;;;;;;;;;5123873;27;20514;-60
2023/06/01 12:52:38;;;;;;;9.68;8.43;;;;;;;;;;5127203;27;20047;-60
2023/06/01 12:55:07;;;;;;;8.00;7.15;;;;;;;;;;5122447;27;20051;-60
2023/06/01 12:57:45;;;;;;;9.23;8.13;;;;;;;;;;5124132;27;20066;-59
2023/06/01 13:00:12;;;;;;;;;;;;;;;;;;5123926;27;20411;-59
2023/06/01 13:02:38;;;;;;;8.50;7.47;;;;;;;;;;5123261;27;20383;-59
2023/06/01 13:05:05;;;;;;;8.82;6.93;;;;;;;;;;5123808;27;20059;-59
2023/06/01 13:07:32;;;;;;;8.18;7.00;;;;;;;;;;5124594;28;20415;-59
2023/06/01 13:10:00;;;;;;;7.40;6.70;;;;;;;;;;5124498;28;20043;-59
2023/06/01 13:12:27;;;;;;;9.50;7.82;;;;;;;;;;5125794;28;20391;-58
2023/06/01 13:14:56;;;;;;;9.30;8.30;;;;;;;;;;5123410;27;20055;-58
2023/06/01 13:17:23;;;;;;;10.18;9.15;;;;;;;;;;5121247;27;20485;-58
2023/06/01 13:19:50;;;;;;;10.77;9.77;;;;;;;;;;5125123;28;20055;-58
2023/06/01 13:22:17;;;;;;;8.80;7.88;;;;;;;;;;5124193;28;20066;-58
2023/06/01 13:24:44;;;;;;;10.50;9.45;;;;;;;;;;5126398;28;20070;-58
2023/06/01 13:27:11;;;;;;;10.13;8.90;;;;;;;;;;5126126;27;20461;-58
2023/06/01 13:29:38;;;;;;;10.93;9.25;;;;;;;;;;5130653;27;20082;-59
2023/06/01 13:32:07;;;;;;;9.65;8.63;;;;;;;;;;5126676;27;20051;-58
2023/06/01 13:34:34;;;;;;;9.50;8.52;;;;;;;;;;5128584;27;20086;-59
2023/06/01 13:37:00;;;;;;;11.18;9.43;;;;;;;;;;5130660;27;20058;-59
2023/06/01 13:39:27;;;;;;;10.45;9.27;;;;;;;;;;5128991;27;20051;-59
2023/06/01 13:41:54;;;;;;;10.27;9.18;;;;;;;;;;5129431;27;20086;-59
2023/06/01 13:44:22;;;;;;;9.93;8.43;;;;;;;;;;5129194;27;20051;-59
2023/06/01 13:46:49;;;;;;;10.43;8.60;;;;;;;;;;5124183;27;20054;-59
2023/06/01 13:49:17;;;;;;;10.18;9.10;;;;;;;;;;5130063;27;20047;-59
2023/06/01 13:51:44;;;;;;;10.00;8.73;;;;;;;;;;5128642;27;20066;-59
2023/06/01 13:54:12;;;;;;;10.13;8.68;;;;;;;;;;5126661;27;20126;-59
2023/06/01 13:56:39;;;;;;;10.50;9.48;;;;;;;;;;5128060;27;20054;-59
2023/06/01 13:59:06;;;;;;;11.98;10.65;;;;;;;;;;5129783;27;20043;-59
2023/06/01 14:01:35;;;;;;;11.68;10.48;;;;;;;;;;5126202;27;20440;-58
2023/06/01 14:04:02;;;;;;;11.57;10.48;;;;;;;;;;5123985;27;20051;-58
2023/06/01 14:06:32;;;;;;;10.80;9.70;;;;;;;;;;5127539;27;20051;-59
2023/06/01 14:08:58;;;;;;;10.77;9.77;;;;;;;;;;5129365;27;20050;-60
2023/06/01 14:11:27;;;;;;;11.98;10.75;;;;;;;;;;5129513;27;20047;-60
2023/06/01 14:13:54;;;;;;;12.32;11.02;;;;;;;;;;5130131;27;20047;-60
2023/06/01 14:16:20;;;;;;;14.23;12.82;;;;;;;;;;5127946;27;20062;-60
2023/06/01 14:18:47;;;;;;;14.45;13.02;;;;;;;;;;5127498;27;20051;-60
2023/06/01 14:21:14;;;;;;;15.07;12.55;;;;;;;;;;5124090;27;20062;-61
2023/06/01 14:23:44;;;;;;;14.32;12.93;;;;;;;;;;5130625;27;20047;-60
2023/06/01 14:26:11;;;;;;;14.95;13.07;;;;;;;;;;5115949;27;20055;-60
2023/06/01 14:28:37;;;;;;;13.15;11.88;;;;;;;;;;5122917;27;20055;-60
2023/06/01 14:31:04;;;;;;;11.55;10.50;;;;;;;;;;5127018;27;21688;-60
2023/06/01 14:33:31;;;;;;;12.82;10.45;;;;;;;;;;5122242;27;20701;-60